Time;durP1;ratioP1;P1;durP2;ratioP2;P2;SDS_P1;SDS_P2;PMS_P1;PMS_P2;Temp;Humidity;BMP_temperature;BMP_pressure;BME280_temperature;BME280_humidity;BME280_pressure;Samples;Min_cycle;Max_cycle;Signal;HPM_P1;HPM_P2
2022/02/22 00:00:11;;;;;;;4.75;3.25;;;;;;;4.58;72.46;97756.45;1699768;82;20952;-65
2022/02/22 00:02:45;;;;;;;4.83;3.20;;;;;;;4.54;72.43;97760.89;1729432;82;21394;-67
2022/02/22 00:05:13;;;;;;;6.17;4.20;;;;;;;4.51;72.42;97764.70;1736941;82;20874;-65
2022/02/22 00:07:39;;;;;;;5.87;3.65;;;;;;;4.48;72.41;97761.61;1733864;82;21519;-66
2022/02/22 00:10:08;;;;;;;5.55;3.45;;;;;;;4.43;72.38;97760.82;1736890;82;22032;-64
2022/02/22 00:12:35;;;;;;;6.80;3.98;;;;;;;4.40;72.40;97767.75;1738056;82;20942;-65
2022/02/22 00:15:02;;;;;;;7.08;4.00;;;;;;;4.36;72.38;97765.12;1733826;82;20869;-66
2022/02/22 00:17:33;;;;;;;4.47;3.37;;;;;;;4.32;72.36;97771.23;1732282;82;20992;-63
2022/02/22 00:19:57;;;;;;;4.15;3.02;;;;;;;4.25;72.33;97768.95;1715634;82;20948;-65
2022/02/22 00:22:24;;;;;;;5.03;3.05;;;;;;;4.21;72.30;97774.25;1724033;82;21772;-64
2022/02/22 00:24:50;;;;;;;4.15;2.52;;;;;;;4.16;72.26;97773.11;1733907;82;21111;-64
2022/02/22 00:27:17;;;;;;;4.87;3.00;;;;;;;4.12;72.27;97768.67;1728216;82;21318;-64
2022/02/22 00:29:43;;;;;;;3.98;2.77;;;;;;;4.09;72.27;97765.59;1699055;82;20947;-66
2022/02/22 00:32:09;;;;;;;4.55;2.52;;;;;;;4.06;72.25;97765.44;1728010;82;21491;-66
2022/02/22 00:34:36;;;;;;;3.62;2.62;;;;;;;4.04;72.23;97769.23;1733682;82;21145;-63
2022/02/22 00:37:03;;;;;;;4.37;3.22;;;;;;;4.03;72.18;97771.52;1733482;82;20921;-64
2022/02/22 00:39:30;;;;;;;4.25;2.47;;;;;;;3.99;72.18;97767.08;1731286;82;20953;-67
2022/02/22 00:41:56;;;;;;;4.10;3.17;;;;;;;3.97;72.14;97765.61;1734069;82;20949;-66
2022/02/22 00:44:23;;;;;;;4.10;2.50;;;;;;;3.95;72.12;97761.02;1733726;82;21056;-66
2022/02/22 00:46:50;;;;;;;3.72;2.83;;;;;;;3.95;72.08;97766.28;1733876;82;21843;-66
2022/02/22 00:49:17;;;;;;;4.78;2.42;;;;;;;3.94;72.00;97766.77;1732374;82;20949;-64
2022/02/22 00:51:43;;;;;;;4.90;2.85;;;;;;;3.95;71.90;97767.60;1733596;82;20929;-64
2022/02/22 00:54:09;;;;;;;2.90;2.60;;;;;;;3.95;71.84;97769.75;1733876;82;21464;-63
2022/02/22 00:56:35;;;;;;;3.77;2.20;;;;;;;3.92;71.81;97764.81;1733581;82;21475;-66
2022/02/22 00:59:02;;;;;;;4.55;2.70;;;;;;;3.92;71.79;97763.98;1730636;82;21207;-64
2022/02/22 01:01:29;;;;;;;4.78;2.77;;;;;;;3.90;71.82;97766.80;1747645;80;20999;-65
2022/02/22 01:03:55;;;;;;;3.25;2.45;;;;;;;3.87;71.83;97764.51;1769762;81;21421;-66
2022/02/22 01:06:21;;;;;;;3.80;2.87;;;;;;;3.84;71.85;97761.38;1769656;81;20933;-64
2022/02/22 01:08:48;;;;;;;3.75;2.83;;;;;;;3.82;71.90;97761.56;1750624;80;20968;-66
2022/02/22 01:11:14;;;;;;;4.95;3.27;;;;;;;3.81;71.92;97753.86;1754685;80;21240;-67
2022/02/22 01:13:40;;;;;;;4.87;3.47;;;;;;;3.80;71.99;97757.47;1774447;80;20974;-63
2022/02/22 01:16:07;;;;;;;7.33;3.45;;;;;;;3.77;72.05;97751.22;1762637;80;20884;-64
2022/02/22 01:18:35;;;;;;;4.92;3.42;;;;;;;3.73;72.13;97749.41;1771728;80;20988;-64
2022/02/22 01:21:01;;;;;;;6.55;3.98;;;;;;;3.69;72.20;97753.38;1732759;80;20875;-64
2022/02/22 01:23:27;;;;;;;4.20;3.50;;;;;;;3.64;72.34;97749.95;1749090;80;21176;-66
2022/02/22 01:25:56;;;;;;;5.30;3.65;;;;;;;3.62;72.47;97745.84;1758618;80;21696;-64
2022/02/22 01:28:22;;;;;;;4.53;3.58;;;;;;;3.58;72.62;97741.41;1752906;81;21466;-64
2022/02/22 01:30:49;;;;;;;6.25;3.22;;;;;;;3.56;72.77;97743.39;1752383;81;21487;-66
2022/02/22 01:33:15;;;;;;;5.70;3.72;;;;;;;3.55;72.89;97747.00;1744025;82;20917;-65
2022/02/22 01:35:42;;;;;;;4.97;3.95;;;;;;;3.51;73.00;97742.25;1743765;82;21072;-65
2022/02/22 01:38:08;;;;;;;4.47;3.90;;;;;;;3.49;73.14;97737.66;1743919;82;21474;-64
2022/02/22 01:40:35;;;;;;;6.12;3.62;;;;;;;3.46;73.25;97738.82;1759654;80;20990;-66
2022/02/22 01:43:01;;;;;;;5.40;4.00;;;;;;;3.43;73.39;97731.27;1742862;80;20925;-65
2022/02/22 01:45:27;;;;;;;4.37;3.37;;;;;;;3.42;73.52;97736.18;1743967;82;21027;-66
2022/02/22 01:47:54;;;;;;;6.35;4.33;;;;;;;3.41;73.64;97741.62;1743805;80;21157;-65
2022/02/22 01:50:20;;;;;;;7.00;4.62;;;;;;;3.39;73.75;97743.08;1757168;80;21119;-66
2022/02/22 01:52:47;;;;;;;5.78;4.40;;;;;;;3.36;73.81;97743.45;1752530;80;20853;-66
2022/02/22 01:55:15;;;;;;;7.37;4.95;;;;;;;3.33;73.95;97743.77;1743143;81;20896;-64
2022/02/22 01:57:41;;;;;;;7.53;4.60;;;;;;;3.31;74.08;97747.03;1723250;82;21484;-66
2022/02/22 02:00:10;;;;;;;7.97;4.78;;;;;;;3.29;74.20;97747.70;1733015;81;21963;-64
2022/02/22 02:02:40;;;;;;;4.97;4.47;;;;;;;3.26;74.36;97750.66;1761810;80;20930;-66
2022/02/22 02:05:08;;;;;;;6.22;4.67;;;;;;;3.23;74.52;97743.13;1759879;80;20884;-67
2022/02/22 02:07:34;;;;;;;8.80;5.05;;;;;;;3.23;74.63;97747.56;1748568;80;20896;-64
2022/02/22 02:10:01;;;;;;;6.72;5.30;;;;;;;3.19;74.76;97743.13;1774597;80;21429;-66
2022/02/22 02:12:27;;;;;;;6.08;5.47;;;;;;;3.17;74.85;97742.95;1755441;80;21099;-64
2022/02/22 02:14:53;;;;;;;6.40;5.37;;;;;;;3.15;75.01;97751.02;1739313;80;21496;-63
2022/02/22 02:17:19;;;;;;;6.70;5.75;;;;;;;3.13;75.15;97749.85;1749926;80;21564;-66
2022/02/22 02:19:46;;;;;;;11.30;6.15;;;;;;;3.13;75.25;97750.34;1743813;82;20941;-66
2022/02/22 02:22:12;;;;;;;6.85;5.53;;;;;;;3.10;75.40;97748.86;1760905;80;20919;-65
2022/02/22 02:24:39;;;;;;;6.12;4.67;;;;;;;3.09;75.61;97752.98;1769204;81;21133;-63
2022/02/22 02:27:05;;;;;;;7.25;5.83;;;;;;;3.05;75.85;97753.00;1745852;81;21435;-65
2022/02/22 02:29:32;;;;;;;10.35;5.17;;;;;;;3.02;76.08;97747.55;1747524;80;20979;-64
2022/02/22 02:31:58;;;;;;;10.25;5.75;;;;;;;2.99;76.35;97752.33;1751479;80;20978;-65
2022/02/22 02:34:27;;;;;;;6.37;4.53;;;;;;;2.96;76.58;97755.28;1761078;80;20987;-64
2022/02/22 02:36:53;;;;;;;5.58;4.85;;;;;;;2.93;76.79;97748.55;1774071;80;21900;-66
2022/02/22 02:39:20;;;;;;;7.53;5.25;;;;;;;2.91;76.99;97755.78;1774600;80;21479;-66
2022/02/22 02:41:46;;;;;;;6.67;5.53;;;;;;;2.91;77.15;97758.41;1753920;80;20881;-67
2022/02/22 02:44:16;;;;;;;6.62;5.08;;;;;;;2.90;77.30;97757.24;1743828;82;20893;-65
2022/02/22 02:46:42;;;;;;;7.05;5.50;;;;;;;2.88;77.41;97757.42;1750584;80;20939;-65
2022/02/22 02:49:10;;;;;;;6.08;5.33;;;;;;;2.88;77.52;97756.59;1744569;80;21132;-67
2022/02/22 02:51:36;;;;;;;8.43;5.83;;;;;;;2.87;77.62;97758.39;1742250;80;20941;-64
2022/02/22 02:54:04;;;;;;;6.45;5.35;;;;;;;2.88;77.74;97764.47;1739070;81;20869;-64
2022/02/22 02:56:31;;;;;;;6.95;5.20;;;;;;;2.86;77.84;97764.65;1759691;80;20971;-65
2022/02/22 02:59:00;;;;;;;7.45;5.65;;;;;;;2.87;77.92;97760.19;1773951;80;21030;-65
2022/02/22 03:01:28;;;;;;;6.05;5.00;;;;;;;2.87;77.98;97762.81;1760291;80;21120;-65
2022/02/22 03:03:54;;;;;;;7.72;5.40;;;;;;;2.87;78.04;97761.02;1754298;80;20980;-63
2022/02/22 03:06:20;;;;;;;9.53;5.97;;;;;;;2.87;78.06;97758.39;1743959;80;20988;-64
2022/02/22 03:08:47;;;;;;;6.50;4.87;;;;;;;2.86;78.10;97766.45;1764082;80;20987;-66
2022/02/22 03:11:13;;;;;;;6.85;4.92;;;;;;;2.86;78.16;97765.96;1767430;80;20943;-64
2022/02/22 03:13:40;;;;;;;7.40;5.33;;;;;;;2.85;78.19;97759.05;1755517;80;21930;-66
2022/02/22 03:16:07;;;;;;;6.92;5.25;;;;;;;2.85;78.21;97770.88;1763792;81;20869;-65
2022/02/22 03:18:34;;;;;;;10.30;5.87;;;;;;;2.86;78.23;97773.02;1759469;81;20937;-63
2022/02/22 03:21:02;;;;;;;8.80;6.83;;;;;;;2.86;78.25;97782.20;1743379;81;20936;-64
2022/02/22 03:23:29;;;;;;;8.30;5.78;;;;;;;2.85;78.27;97785.80;1735422;81;20972;-67
2022/02/22 03:25:55;;;;;;;6.80;5.40;;;;;;;2.84;78.27;97791.55;1733930;82;21159;-67
2022/02/22 03:28:21;;;;;;;7.30;6.08;;;;;;;2.84;78.31;97799.94;1738577;82;20993;-66
2022/02/22 03:30:48;;;;;;;6.40;4.78;;;;;;;2.84;78.33;97796.00;1746044;80;21007;-66
2022/02/22 03:33:15;;;;;;;6.37;5.05;;;;;;;2.84;78.35;97797.31;1744305;81;20941;-67
2022/02/22 03:35:42;;;;;;;6.58;5.17;;;;;;;2.85;78.31;97797.14;1743857;82;21530;-64
2022/02/22 03:38:09;;;;;;;6.70;5.78;;;;;;;2.84;78.27;97794.69;1744758;80;21139;-65
2022/02/22 03:40:36;;;;;;;8.85;5.33;;;;;;;2.85;78.23;97800.25;1757170;80;20936;-65
2022/02/22 03:43:03;;;;;;;7.55;5.10;;;;;;;2.85;78.22;97798.45;1748133;80;20869;-66
2022/02/22 03:45:29;;;;;;;6.25;4.60;;;;;;;2.86;78.18;97799.28;1760360;80;20939;-64
2022/02/22 03:47:56;;;;;;;7.92;5.33;;;;;;;2.87;78.14;97806.16;1774734;80;21481;-63
2022/02/22 03:50:22;;;;;;;7.20;5.53;;;;;;;2.86;78.09;97802.73;1772330;80;21129;-65
2022/02/22 03:52:50;;;;;;;7.03;6.05;;;;;;;2.87;78.04;97804.36;1749697;80;21010;-67
2022/02/22 03:55:17;;;;;;;7.67;5.78;;;;;;;2.88;77.95;97809.12;1745030;80;20845;-65
2022/02/22 03:57:44;;;;;;;7.70;5.55;;;;;;;2.89;77.88;97813.41;1774467;80;20899;-65
2022/02/22 04:00:18;;;;;;;7.05;5.65;;;;;;;2.89;77.85;97814.72;1773164;80;20931;-66
2022/02/22 04:02:45;;;;;;;7.10;5.00;;;;;;;2.88;77.83;97799.93;1739099;82;21159;-65
2022/02/22 04:05:11;;;;;;;8.15;5.33;;;;;;;2.87;77.83;97797.79;1735138;82;21510;-65
2022/02/22 04:07:38;;;;;;;6.97;5.58;;;;;;;2.89;77.79;97798.95;1733986;82;20988;-63
2022/02/22 04:10:06;;;;;;;6.62;4.95;;;;;;;2.90;77.75;97794.02;1733961;82;21009;-66
2022/02/22 04:12:34;;;;;;;5.65;5.05;;;;;;;2.91;77.66;97791.73;1745114;81;21029;-64
2022/02/22 04:15:03;;;;;;;6.53;5.08;;;;;;;2.91;77.60;97791.25;1733903;82;20977;-65
2022/02/22 04:17:31;;;;;;;6.62;5.03;;;;;;;2.93;77.52;97797.64;1733781;82;21043;-63
2022/02/22 04:19:59;;;;;;;6.15;4.97;;;;;;;2.94;77.45;97797.48;1715200;82;20965;-66
2022/02/22 04:22:25;;;;;;;7.35;5.83;;;;;;;2.95;77.37;97796.97;1725905;82;21472;-64
2022/02/22 04:24:52;;;;;;;7.95;6.50;;;;;;;2.96;77.32;97794.69;1733824;82;20992;-64
2022/02/22 04:27:18;;;;;;;7.62;6.03;;;;;;;2.97;77.22;97802.91;1733990;82;21802;-65
2022/02/22 04:29:44;;;;;;;6.33;5.33;;;;;;;2.97;77.11;97804.22;1735115;81;20906;-66
2022/02/22 04:32:11;;;;;;;6.17;5.12;;;;;;;2.98;77.01;97805.84;1728447;80;21505;-67
2022/02/22 04:34:37;;;;;;;6.50;5.22;;;;;;;2.97;76.93;97806.33;1711585;81;21002;-66
2022/02/22 04:37:04;;;;;;;5.95;5.12;;;;;;;2.96;76.90;97811.77;1722257;80;20925;-64
2022/02/22 04:39:30;;;;;;;6.08;4.95;;;;;;;2.94;76.84;97809.31;1733729;82;21226;-66
2022/02/22 04:41:56;;;;;;;6.75;5.75;;;;;;;2.94;76.81;97815.05;1713077;82;20972;-65
2022/02/22 04:44:24;;;;;;;6.33;5.17;;;;;;;2.94;76.78;97809.31;1741008;81;20962;-65
2022/02/22 04:46:50;;;;;;;6.53;5.08;;;;;;;2.94;76.74;97809.80;1729488;81;21024;-68
2022/02/22 04:49:16;;;;;;;7.85;5.95;;;;;;;2.94;76.70;97808.48;1737856;82;20914;-67
2022/02/22 04:51:43;;;;;;;8.45;5.28;;;;;;;2.93;76.65;97814.22;1734890;82;21136;-65
2022/02/22 04:54:10;;;;;;;6.85;5.87;;;;;;;2.92;76.58;97811.25;1747098;80;20988;-65
2022/02/22 04:56:37;;;;;;;7.83;5.78;;;;;;;2.93;76.53;97819.48;1711921;82;20922;-65
2022/02/22 04:59:04;;;;;;;7.90;5.53;;;;;;;2.92;76.47;97817.02;1739655;80;20967;-66
2022/02/22 05:01:31;;;;;;;6.62;4.67;;;;;;;2.93;76.41;97822.10;1736428;82;20993;-66
2022/02/22 05:03:57;;;;;;;8.13;5.05;;;;;;;2.94;76.30;97828.19;1757725;80;21806;-65
2022/02/22 05:06:24;;;;;;;7.67;5.40;;;;;;;2.94;76.19;97822.93;1755193;80;20999;-65
2022/02/22 05:08:50;;;;;;;7.53;5.58;;;;;;;2.95;76.05;97825.87;1752635;80;20984;-65
2022/02/22 05:11:16;;;;;;;8.13;5.87;;;;;;;2.93;75.93;97824.73;1708190;84;21013;-63
2022/02/22 05:13:43;;;;;;;9.95;5.05;;;;;;;2.92;75.88;97831.47;1754770;80;20868;-65
2022/02/22 05:16:09;;;;;;;5.95;4.58;;;;;;;2.90;75.87;97830.30;1743982;80;21210;-66
2022/02/22 05:18:36;;;;;;;5.42;4.37;;;;;;;2.89;75.87;97830.48;1761633;80;20892;-66
2022/02/22 05:21:02;;;;;;;5.83;4.60;;;;;;;2.90;75.87;97837.36;1746962;80;21521;-64
2022/02/22 05:23:35;;;;;;;5.65;4.60;;;;;;;2.90;75.82;97832.10;1761358;80;20967;-67
2022/02/22 05:26:05;;;;;;;5.25;4.50;;;;;;;2.91;75.80;97839.02;1758371;80;20931;-64
2022/02/22 05:28:32;;;;;;;4.80;4.30;;;;;;;2.93;75.83;97837.03;1750775;80;21713;-65
2022/02/22 05:30:58;;;;;;;5.37;4.28;;;;;;;3.00;75.85;97841.97;1752878;80;21009;-64
2022/02/22 05:33:27;;;;;;;5.85;4.50;;;;;;;3.13;75.92;97842.30;1749833;80;20995;-63
2022/02/22 05:35:53;;;;;;;6.55;4.67;;;;;;;3.33;75.75;97837.08;1751827;80;20986;-61
2022/02/22 05:38:20;;;;;;;4.75;3.80;;;;;;;3.59;75.40;97842.98;1759397;80;21056;-64
2022/02/22 05:40:46;;;;;;;5.00;4.12;;;;;;;3.89;74.82;97849.83;1749812;80;21157;-65
2022/02/22 05:43:13;;;;;;;5.50;4.20;;;;;;;4.22;74.10;97849.57;1704909;83;20917;-65
2022/02/22 05:45:39;;;;;;;6.55;4.62;;;;;;;4.55;73.08;97846.33;1773629;80;21552;-67
2022/02/22 05:48:05;;;;;;;5.67;4.00;;;;;;;4.91;71.99;97856.67;1765867;80;21003;-64
2022/02/22 05:50:33;;;;;;;4.70;3.90;;;;;;;5.28;70.75;97857.75;1740441;80;21027;-65
2022/02/22 05:52:59;;;;;;;5.20;4.15;;;;;;;5.63;69.36;97842.65;1746997;80;21968;-62
2022/02/22 05:55:26;;;;;;;5.75;3.72;;;;;;;5.99;68.12;97844.97;1754337;80;21398;-62
2022/02/22 05:57:53;;;;;;;4.55;3.35;;;;;;;6.40;66.90;97847.97;1740629;80;20941;-66
2022/02/22 06:00:21;;;;;;;5.42;3.85;;;;;;;6.84;65.38;97854.51;1744715;81;21060;-67
2022/02/22 06:02:48;;;;;;;4.58;3.40;;;;;;;7.20;63.58;97843.41;1754662;80;21047;-65
2022/02/22 06:05:14;;;;;;;4.58;3.52;;;;;;;7.55;62.04;97841.72;1757156;80;21160;-65
2022/02/22 06:07:41;;;;;;;5.62;3.90;;;;;;;7.92;60.77;97843.23;1755277;80;21484;-64
2022/02/22 06:10:08;;;;;;;3.92;3.33;;;;;;;8.24;59.40;97847.91;1689418;83;20941;-63
2022/02/22 06:12:35;;;;;;;4.53;3.50;;;;;;;8.59;58.15;97852.73;1750515;80;21069;-66
2022/02/22 06:15:02;;;;;;;4.47;3.58;;;;;;;8.97;57.06;97857.88;1757625;80;20991;-64
2022/02/22 06:17:28;;;;;;;4.58;3.90;;;;;;;9.38;55.62;97853.82;1757522;80;21715;-63
2022/02/22 06:19:57;;;;;;;4.45;3.45;;;;;;;9.72;54.23;97852.84;1766114;80;20911;-65
2022/02/22 06:22:23;;;;;;;4.87;4.25;;;;;;;10.05;52.92;97850.98;1759918;80;20986;-64
2022/02/22 06:24:49;;;;;;;4.85;3.87;;;;;;;10.30;51.89;97854.64;1774429;80;21022;-68
2022/02/22 06:27:16;;;;;;;4.67;3.95;;;;;;;10.50;50.82;97858.09;1764195;80;20980;-68
2022/02/22 06:29:43;;;;;;;6.10;4.50;;;;;;;10.67;49.96;97860.27;1768526;80;21164;-64
2022/02/22 06:32:10;;;;;;;4.80;4.20;;;;;;;10.85;49.05;97853.77;1774360;80;21001;-63
2022/02/22 06:34:38;;;;;;;5.45;4.22;;;;;;;11.03;48.48;97855.22;1769246;80;20861;-64
2022/02/22 06:37:05;;;;;;;5.12;4.25;;;;;;;11.30;47.63;97853.23;1770380;80;21003;-66
2022/02/22 06:39:31;;;;;;;4.75;4.17;;;;;;;11.54;46.93;97858.63;1762263;80;20931;-64
2022/02/22 06:41:57;;;;;;;5.22;4.30;;;;;;;11.84;46.15;97857.50;1761951;80;21142;-64
2022/02/22 06:44:24;;;;;;;5.53;3.87;;;;;;;12.20;45.46;97863.47;1768451;80;20931;-63
2022/02/22 06:46:50;;;;;;;6.15;4.45;;;;;;;12.68;44.76;97867.58;1769303;81;20951;-65
2022/02/22 06:49:17;;;;;;;5.12;4.17;;;;;;;13.21;43.51;97867.28;1769273;80;20892;-64
2022/02/22 06:51:43;;;;;;;5.37;4.00;;;;;;;13.70;42.56;97864.02;1769177;80;20984;-62
2022/02/22 06:54:11;;;;;;;5.33;4.58;;;;;;;14.21;41.55;97857.51;1758807;80;20979;-65
2022/02/22 06:56:38;;;;;;;6.78;5.22;;;;;;;14.71;40.16;97858.69;1768426;80;21538;-66
2022/02/22 06:59:04;;;;;;;6.42;4.90;;;;;;;15.12;39.16;97863.55;1760934;80;21004;-64
2022/02/22 07:01:31;;;;;;;8.20;4.97;;;;;;;15.43;37.95;97865.77;1762057;80;21041;-63
2022/02/22 07:03:58;;;;;;;5.35;4.78;;;;;;;15.67;37.28;97868.63;1774349;80;20907;-65
2022/02/22 07:06:24;;;;;;;6.47;5.05;;;;;;;15.86;36.54;97868.70;1774242;80;21123;-68
2022/02/22 07:08:51;;;;;;;9.45;5.45;;;;;;;16.06;35.90;97870.89;1774328;80;20943;-64
2022/02/22 07:11:18;;;;;;;7.65;6.12;;;;;;;16.29;35.44;97876.13;1768511;80;21014;-64
2022/02/22 07:13:44;;;;;;;5.70;4.70;;;;;;;16.51;34.72;97868.11;1774092;79;21850;-63
2022/02/22 07:16:14;;;;;;;4.90;4.22;;;;;;;16.62;33.97;97877.97;1774271;80;21520;-64
2022/02/22 07:18:40;;;;;;;5.95;5.00;;;;;;;16.66;33.68;97880.43;1774292;80;21116;-64
2022/02/22 07:21:07;;;;;;;8.63;5.90;;;;;;;16.72;33.56;97884.00;1774329;80;21434;-62
2022/02/22 07:23:34;;;;;;;5.50;4.87;;;;;;;16.92;33.67;97889.11;1755077;80;21056;-65
2022/02/22 07:26:01;;;;;;;6.47;4.90;;;;;;;17.31;32.92;97895.80;1773392;80;21025;-64
2022/02/22 07:28:28;;;;;;;7.80;6.75;;;;;;;17.49;32.01;97888.22;1774367;80;21121;-63
2022/02/22 07:30:54;;;;;;;7.65;6.45;;;;;;;17.50;32.00;97897.88;1774218;80;21323;-64
2022/02/22 07:33:21;;;;;;;6.17;5.58;;;;;;;17.68;32.02;97894.06;1774491;80;20899;-61
2022/02/22 07:35:47;;;;;;;6.62;4.47;;;;;;;17.98;31.78;97893.55;1754186;80;21586;-63
2022/02/22 07:38:13;;;;;;;5.20;4.05;;;;;;;18.14;31.08;97892.63;1769163;80;20931;-63
2022/02/22 07:40:40;;;;;;;5.72;4.70;;;;;;;18.08;30.73;97893.64;1752692;80;20981;-64
2022/02/22 07:43:07;;;;;;;6.35;4.92;;;;;;;17.97;30.65;97895.43;1742483;80;21114;-64
2022/02/22 07:45:34;;;;;;;5.78;5.17;;;;;;;17.79;30.93;97902.52;1736591;81;20980;-62
2022/02/22 07:48:02;;;;;;;7.53;5.78;;;;;;;17.73;31.07;97896.27;1742707;81;20995;-64
2022/02/22 07:50:28;;;;;;;8.75;5.50;;;;;;;17.68;30.97;97903.47;1758427;80;20974;-64
2022/02/22 07:52:54;;;;;;;6.00;5.20;;;;;;;17.59;31.15;97909.05;1765302;80;21036;-65
2022/02/22 07:55:21;;;;;;;5.72;5.10;;;;;;;17.47;31.08;97917.20;1737808;80;21070;-63
2022/02/22 07:57:47;;;;;;;6.87;5.80;;;;;;;17.26;31.27;97916.67;1750934;80;21789;-64
2022/02/22 08:00:15;;;;;;;4.83;4.33;;;;;;;17.07;31.61;97910.83;1761105;80;20954;-63
2022/02/22 08:02:42;;;;;;;6.20;5.03;;;;;;;16.97;31.51;97923.31;1762917;80;20974;-64
2022/02/22 08:05:09;;;;;;;6.45;4.53;;;;;;;16.84;32.09;97927.69;1774391;80;21006;-62
2022/02/22 08:07:37;;;;;;;6.75;4.87;;;;;;;16.94;32.25;97926.48;1774516;80;21882;-65
2022/02/22 08:10:06;;;;;;;6.35;4.25;;;;;;;16.91;31.83;97918.39;1774171;80;20891;-66
2022/02/22 08:12:33;;;;;;;6.17;5.35;;;;;;;16.83;32.06;97936.80;1761442;80;21580;-65
2022/02/22 08:14:59;;;;;;;8.50;5.25;;;;;;;16.85;32.35;97932.80;1764367;80;21109;-62
2022/02/22 08:17:26;;;;;;;6.12;4.50;;;;;;;17.01;32.28;97934.64;1750200;80;20919;-63
2022/02/22 08:19:52;;;;;;;5.55;4.15;;;;;;;16.96;32.05;97948.01;1753477;80;21204;-62
2022/02/22 08:22:18;;;;;;;7.60;4.08;;;;;;;16.88;32.40;97954.33;1739637;81;21023;-65
2022/02/22 08:24:45;;;;;;;6.50;4.40;;;;;;;16.94;32.65;97949.31;1761407;80;21461;-65
2022/02/22 08:27:12;;;;;;;5.10;3.75;;;;;;;17.11;32.53;97946.05;1764820;80;20928;-64
2022/02/22 08:29:39;;;;;;;9.30;5.53;;;;;;;17.23;32.37;97941.39;1774514;80;20994;-64
2022/02/22 08:32:06;;;;;;;12.07;9.50;;;;;;;17.40;32.36;97949.38;1773263;80;21950;-65
2022/02/22 08:34:32;;;;;;;8.85;5.80;;;;;;;17.60;31.99;97948.29;1773857;80;20998;-65
2022/02/22 08:36:59;;;;;;;5.65;4.35;;;;;;;17.77;32.34;97954.42;1774276;80;21555;-65
2022/02/22 08:39:25;;;;;;;7.85;4.65;;;;;;;18.01;31.57;97957.09;1769518;80;21443;-65
2022/02/22 08:41:52;;;;;;;6.03;4.87;;;;;;;18.10;31.46;97962.81;1766649;80;20970;-63
2022/02/22 08:44:18;;;;;;;5.85;4.78;;;;;;;18.17;31.21;97964.78;1772798;80;21113;-63
2022/02/22 08:46:45;;;;;;;8.88;5.10;;;;;;;18.26;31.52;97968.63;1761509;80;21398;-62
2022/02/22 08:49:11;;;;;;;5.92;4.70;;;;;;;18.63;31.39;97968.70;1773954;80;20951;-63
2022/02/22 08:51:37;;;;;;;4.62;4.10;;;;;;;18.92;30.85;97964.59;1760252;80;20947;-65
2022/02/22 08:54:05;;;;;;;6.90;4.90;;;;;;;19.03;30.43;97967.08;1773465;80;21477;-61
2022/02/22 08:56:31;;;;;;;8.38;4.97;;;;;;;19.11;30.45;97975.20;1774242;80;21524;-63
2022/02/22 08:58:58;;;;;;;5.42;3.98;;;;;;;19.30;30.47;97960.75;1774295;80;20876;-66
2022/02/22 09:01:24;;;;;;;9.58;4.58;;;;;;;19.58;30.06;97973.31;1771440;80;20931;-64
2022/02/22 09:03:50;;;;;;;6.15;4.50;;;;;;;19.58;29.76;97978.71;1756256;80;21016;-64
2022/02/22 09:06:17;;;;;;;7.37;4.35;;;;;;;19.47;29.71;97982.47;1770311;80;20907;-65
2022/02/22 09:08:43;;;;;;;5.08;4.00;;;;;;;19.57;29.67;97977.64;1773596;80;21151;-63
2022/02/22 09:11:10;;;;;;;5.17;3.83;;;;;;;19.32;29.82;97989.64;1769990;80;21037;-65
2022/02/22 09:13:36;;;;;;;5.03;3.60;;;;;;;18.83;29.78;97991.20;1764017;80;20860;-62
2022/02/22 09:16:04;;;;;;;4.95;3.98;;;;;;;18.08;30.21;98002.63;1742202;81;21042;-63
2022/02/22 09:18:30;;;;;;;4.33;3.10;;;;;;;17.27;30.97;98001.09;1757695;80;20947;-63
2022/02/22 09:20:57;;;;;;;4.80;4.22;;;;;;;16.51;31.68;98003.66;1773791;80;21082;-63
2022/02/22 09:23:23;;;;;;;8.18;3.92;;;;;;;15.71;32.78;98019.09;1762603;80;20943;-63
2022/02/22 09:25:49;;;;;;;5.05;3.42;;;;;;;15.22;33.90;98020.45;1766937;80;21576;-66
2022/02/22 09:28:17;;;;;;;11.35;4.15;;;;;;;14.84;34.82;98032.96;1770222;80;20974;-65
2022/02/22 09:30:44;;;;;;;8.05;4.80;;;;;;;14.40;35.67;98025.45;1763499;80;20989;-66
2022/02/22 09:33:10;;;;;;;7.05;4.92;;;;;;;13.90;36.22;98027.58;1759048;80;21813;-64
2022/02/22 09:35:38;;;;;;;5.20;4.00;;;;;;;13.34;37.33;98038.55;1745390;80;20893;-63
2022/02/22 09:38:04;;;;;;;6.33;3.65;;;;;;;12.88;38.17;98027.78;1760177;80;20986;-63
2022/02/22 09:40:31;;;;;;;6.87;4.25;;;;;;;12.38;38.92;98037.63;1759616;80;21501;-63
2022/02/22 09:42:59;;;;;;;6.55;4.67;;;;;;;11.88;39.84;98041.75;1770799;80;20954;-64
2022/02/22 09:45:25;;;;;;;11.88;5.45;;;;;;;12.08;40.04;98026.45;1770400;80;21049;-60
2022/02/22 09:47:57;;;;;;;6.10;4.72;;;;;;;12.24;40.05;98023.28;1769544;80;21485;-60
2022/02/22 09:50:23;;;;;;;8.88;4.12;;;;;;;12.28;40.13;98025.80;1760318;80;20971;-58
2022/02/22 09:52:49;;;;;;;5.95;3.80;;;;;;;12.64;39.87;98028.63;1757964;80;21328;-59
2022/02/22 09:55:16;;;;;;;4.92;3.22;;;;;;;13.04;39.20;98027.73;1765146;80;20829;-60
2022/02/22 09:57:43;;;;;;;5.47;4.30;;;;;;;13.55;38.38;98038.11;1773761;80;21925;-62
2022/02/22 10:00:22;;;;;;;5.90;3.58;;;;;;;13.66;38.06;98033.33;1774263;80;20971;-60
2022/02/22 10:02:49;;;;;;;6.00;3.50;;;;;;;13.53;37.85;98032.18;1774034;80;21013;-60
2022/02/22 10:05:24;;;;;;;5.85;3.37;;;;;;;13.37;37.88;98038.11;1772880;80;20943;-59
2022/02/22 10:07:58;;;;;;;4.37;3.25;;;;;;;13.03;38.00;98038.12;1742654;80;21033;-60
2022/02/22 10:10:42;;;;;;;5.28;3.83;;;;;;;12.59;38.54;98047.66;1771776;80;21147;-60
2022/02/22 10:13:10;;;;;;;8.58;3.30;;;;;;;12.10;39.48;98057.20;1765821;80;20998;-60
2022/02/22 10:15:44;;;;;;;5.65;3.37;;;;;;;11.86;40.36;98066.47;1738425;80;20884;-62
2022/02/22 10:18:11;;;;;;;11.15;4.35;;;;;;;11.77;41.05;98065.88;1774164;80;21010;-62
2022/02/22 10:20:38;;;;;;;4.28;2.42;;;;;;;11.62;41.37;98073.30;1745406;80;20888;-62
2022/02/22 10:23:06;;;;;;;4.03;2.40;;;;;;;11.46;41.80;98064.44;1755048;80;21152;-63
2022/02/22 10:25:35;;;;;;;5.60;3.87;;;;;;;11.29;41.98;98084.56;1756306;80;20935;-70
2022/02/22 10:28:04;;;;;;;4.50;3.22;;;;;;;11.15;42.51;98071.28;1746831;80;20996;-72
2022/02/22 10:30:40;;;;;;;5.97;3.33;;;;;;;11.03;42.67;98067.59;1743126;80;20956;-63
2022/02/22 10:33:27;;;;;;;4.58;3.33;;;;;;;10.84;42.81;98081.75;1743962;82;26864;-64
2022/02/22 10:36:04;;;;;;;5.30;2.92;;;;;;;10.67;43.35;98079.69;1756047;80;21479;-64
2022/02/22 10:38:31;;;;;;;4.62;3.12;;;;;;;10.54;43.92;98076.52;1744820;80;21030;-67
2022/02/22 10:41:05;;;;;;;5.12;2.80;;;;;;;10.42;44.04;98079.48;1774066;80;20892;-66
2022/02/22 10:43:35;;;;;;;4.28;2.08;;;;;;;10.29;44.33;98085.59;1769727;80;21018;-66
2022/02/22 10:46:09;;;;;;;4.53;2.40;;;;;;;10.20;44.68;98085.97;1756584;80;20933;-66
2022/02/22 10:48:38;;;;;;;6.17;2.40;;;;;;;10.07;44.79;98089.38;1761588;80;21146;-68
2022/02/22 10:51:11;;;;;;;4.10;2.17;;;;;;;9.94;45.07;98086.69;1766695;80;20896;-66
2022/02/22 10:53:40;;;;;;;2.40;1.82;;;;;;;9.86;45.38;98082.38;1774606;80;21357;-66
2022/02/22 10:56:09;;;;;;;3.42;1.77;;;;;;;9.73;45.52;98080.17;1774405;80;20911;-68
2022/02/22 10:58:39;;;;;;;4.50;1.98;;;;;;;9.58;45.80;98088.29;1774422;80;20978;-67
2022/02/22 11:01:13;;;;;;;2.02;1.82;;;;;;;9.43;46.10;98100.05;1761619;80;20876;-67
2022/02/22 11:03:41;;;;;;;2.90;2.12;;;;;;;9.30;46.28;98105.61;1754380;80;21039;-68
2022/02/22 11:06:09;;;;;;;4.03;2.90;;;;;;;9.24;46.62;98110.36;1742946;80;20943;-62
2022/02/22 11:08:39;;;;;;;6.40;2.60;;;;;;;9.17;47.01;98108.69;1770259;80;20909;-62
2022/02/22 11:11:09;;;;;;;6.80;2.35;;;;;;;9.04;47.46;98120.03;1753427;80;21507;-63
2022/02/22 11:13:36;;;;;;;4.87;3.10;;;;;;;8.93;47.89;98133.81;1761656;80;21135;-62
2022/02/22 11:16:14;;;;;;;7.67;3.08;;;;;;;8.86;48.18;98132.95;1750702;80;20978;-62
2022/02/22 11:18:44;;;;;;;9.80;3.30;;;;;;;8.79;48.56;98134.70;1728075;82;21064;-66
2022/02/22 11:21:11;;;;;;;8.48;3.87;;;;;;;8.74;48.95;98145.56;1743866;82;20988;-63
2022/02/22 11:23:37;;;;;;;8.00;4.22;;;;;;;8.69;49.89;98153.59;1758113;80;20936;-62
2022/02/22 11:26:10;;;;;;;5.00;3.35;;;;;;;8.65;49.76;98156.83;1766272;80;21842;-70
2022/02/22 11:28:42;;;;;;;8.05;2.90;;;;;;;8.56;49.53;98156.13;1774332;80;20943;-62
2022/02/22 11:31:12;;;;;;;5.62;2.65;;;;;;;8.47;49.66;98161.74;1769278;80;21029;-64
2022/02/22 11:33:53;;;;;;;5.80;2.83;;;;;;;8.41;49.78;98161.98;1753347;80;20876;-63
2022/02/22 11:36:29;;;;;;;3.87;2.95;;;;;;;8.39;50.11;98167.98;1762553;80;21066;-64
2022/02/22 11:38:55;;;;;;;;;;;;;;;8.38;50.20;98164.19;1777345;80;23361;-63